Time;durP1;ratioP1;P1;durP2;ratioP2;P2;SDS_P1;SDS_P2;PMS_P1;PMS_P2;Temp;Humidity;BMP_temperature;BMP_pressure;BME280_temperature;BME280_humidity;BME280_pressure;Samples;Min_cycle;Max_cycle;Signal;HPM_P1;HPM_P2
2021/04/18 00:00:23;;;;;;;;;;;15.40;99.90;;;;;;5004367;28;20376;-70
2021/04/18 00:02:50;;;;;;;;;;;15.40;99.90;;;;;;4993856;28;19921;-71
2021/04/18 00:05:19;;;;;;;;;;;15.40;99.90;;;;;;4994160;28;19964;-72
2021/04/18 00:07:45;;;;;;;;;;;15.50;99.90;;;;;;4993583;28;19910;-70
2021/04/18 00:10:12;;;;;;;;;;;15.50;99.90;;;;;;5001684;28;19909;-70
2021/04/18 00:12:39;;;;;;;;;;;15.60;99.90;;;;;;4998475;28;19918;-71
2021/04/18 00:15:07;;;;;;;;;;;15.70;99.90;;;;;;4993729;28;19910;-70
2021/04/18 00:17:37;;;;;;;;;;;15.80;99.90;;;;;;4993555;28;20349;-70
2021/04/18 00:20:05;;;;;;;;;;;15.80;99.90;;;;;;4993449;28;19910;-71
2021/04/18 00:22:32;;;;;;;;;;;16.00;99.90;;;;;;4993259;28;20360;-71
2021/04/18 00:24:59;;;;;;;;;;;16.10;99.90;;;;;;4976112;28;19917;-69
2021/04/18 00:27:25;;;;;;;;;;;16.10;99.90;;;;;;4993805;28;19917;-71
2021/04/18 00:29:52;;;;;;;;;;;16.20;99.90;;;;;;4996238;28;19957;-71
2021/04/18 00:32:19;;;;;;;;;;;16.20;99.90;;;;;;4997525;28;19920;-71
2021/04/18 00:34:45;;;;;;;;;;;16.30;99.90;;;;;;4997309;28;20272;-70
2021/04/18 00:37:12;;;;;;;;;;;16.40;99.90;;;;;;4995999;28;20364;-71
2021/04/18 00:39:39;;;;;;;;;;;16.60;99.90;;;;;;4996409;28;19909;-71
2021/04/18 00:42:05;;;;;;;;;;;16.80;99.90;;;;;;4996831;28;19910;-72
2021/04/18 00:44:32;;;;;;;;;;;16.80;99.90;;;;;;5016340;28;19924;-72
2021/04/18 00:46:59;;;;;;;;;;;16.80;99.90;;;;;;5015983;28;19960;-70
2021/04/18 00:49:25;;;;;;;;;;;16.70;99.90;;;;;;5015850;28;19909;-70
2021/04/18 00:51:52;;;;;;;;;;;16.80;99.90;;;;;;5016890;28;19956;-71
2021/04/18 00:54:19;;;;;;;;;;;16.90;99.90;;;;;;5017901;28;19909;-71
2021/04/18 00:56:45;;;;;;;;;;;17.00;99.90;;;;;;5017611;28;20383;-71
2021/04/18 00:59:12;;;;;;;;;;;17.10;99.90;;;;;;5015198;28;20048;-71
2021/04/18 01:01:39;;;;;;;;;;;17.20;99.90;;;;;;5013496;28;19909;-71
2021/04/18 01:04:06;;;;;;;;;;;17.30;99.90;;;;;;5006148;28;20020;-71
2021/04/18 01:06:33;;;;;;;;;;;17.30;99.90;;;;;;4959510;28;19917;-72
2021/04/18 01:09:03;;;;;;;;;;;17.30;99.90;;;;;;4993597;28;19944;-72
2021/04/18 01:11:30;;;;;;;;;;;17.30;99.90;;;;;;4994692;28;19913;-71
2021/04/18 01:13:58;;;;;;;;;;;17.30;99.90;;;;;;5013473;28;20005;-71
2021/04/18 01:16:25;;;;;;;;;;;17.30;99.70;;;;;;5013415;28;19909;-71
2021/04/18 01:18:51;;;;;;;;;;;17.20;99.70;;;;;;5012918;28;20000;-71
2021/04/18 01:21:21;;;;;;;;;;;17.30;99.70;;;;;;5012324;28;19918;-71
2021/04/18 01:23:48;;;;;;;;;;;17.70;98.70;;;;;;5012400;28;19948;-70
2021/04/18 01:26:15;;;;;;;;;;;18.10;98.20;;;;;;5011483;28;19909;-71
2021/04/18 01:28:44;;;;;;;;;;;18.30;98.10;;;;;;5012764;28;19949;-71
2021/04/18 01:31:11;;;;;;;;;;;18.50;97.50;;;;;;5016894;28;19917;-70
2021/04/18 01:33:37;;;;;;;;;;;18.50;97.10;;;;;;5017598;28;19914;-69
2021/04/18 01:36:05;;;;;;;;;;;18.40;96.90;;;;;;5016616;28;19970;-71
2021/04/18 01:38:33;;;;;;;;;;;18.20;97.30;;;;;;5016924;28;19985;-72
2021/04/18 01:41:03;;;;;;;;;;;18.20;97.10;;;;;;5016306;28;19917;-72
2021/04/18 01:43:32;;;;;;;;;;;18.10;97.00;;;;;;5016374;28;20051;-72
2021/04/18 01:45:59;;;;;;;;;;;18.10;97.10;;;;;;5016188;28;19917;-72
2021/04/18 01:48:29;;;;;;;;;;;18.00;97.00;;;;;;5014583;28;19917;-72
2021/04/18 01:50:55;;;;;;;;;;;18.10;96.20;;;;;;5015305;28;19909;-72
2021/04/18 01:53:25;;;;;;;;;;;18.20;96.50;;;;;;5016053;28;19917;-72
2021/04/18 01:55:51;;;;;;;;;;;18.10;96.70;;;;;;5016147;28;19952;-72
2021/04/18 01:58:18;;;;;;;;;;;18.10;95.90;;;;;;5015768;28;19910;-72
2021/04/18 02:00:45;;;;;;;;;;;18.20;95.70;;;;;;5022623;28;19953;-71
2021/04/18 02:03:11;;;;;;;;;;;18.30;94.90;;;;;;5028461;28;19935;-70
2021/04/18 02:05:38;;;;;;;;;;;18.40;94.70;;;;;;5024537;28;19922;-71
2021/04/18 02:08:08;;;;;;;;;;;18.60;95.00;;;;;;5002531;28;20298;-71
2021/04/18 02:10:35;;;;;;;;;;;18.70;94.40;;;;;;5018138;28;19910;-70
2021/04/18 02:13:02;;;;;;;;;;;18.70;95.70;;;;;;5015954;28;19909;-71
2021/04/18 02:15:30;;;;;;;;;;;18.80;94.80;;;;;;5015926;28;20016;-70
2021/04/18 02:17:57;;;;;;;;;;;18.80;94.00;;;;;;5005666;28;19920;-70
2021/04/18 02:20:23;;;;;;;;;;;18.70;94.10;;;;;;4996105;28;20001;-70
2021/04/18 02:22:50;;;;;;;;;;;18.80;93.90;;;;;;4996373;28;19910;-71
2021/04/18 02:25:17;;;;;;;;;;;18.70;93.40;;;;;;4997057;28;20280;-71
2021/04/18 02:27:44;;;;;;;;;;;18.70;94.30;;;;;;4996388;28;19917;-70
2021/04/18 02:30:11;;;;;;;;;;;18.60;94.60;;;;;;4995833;28;19922;-71
2021/04/18 02:32:38;;;;;;;;;;;18.80;93.70;;;;;;4978077;28;19922;-70
2021/04/18 02:35:05;;;;;;;;;;;18.90;94.00;;;;;;4983329;28;19914;-70
2021/04/18 02:37:31;;;;;;;;;;;18.90;94.00;;;;;;5008016;28;20004;-69
2021/04/18 02:39:58;;;;;;;;;;;18.90;93.70;;;;;;4980337;28;19928;-70
2021/04/18 02:42:25;;;;;;;;;;;18.90;94.70;;;;;;5013575;28;19913;-69
2021/04/18 02:44:52;;;;;;;;;;;18.80;94.30;;;;;;5013452;28;19972;-71
2021/04/18 02:47:20;;;;;;;;;;;18.80;94.50;;;;;;5014626;28;19914;-71
2021/04/18 02:49:46;;;;;;;;;;;18.70;94.50;;;;;;5013402;28;19914;-68
2021/04/18 02:52:13;;;;;;;;;;;18.80;94.20;;;;;;5013270;28;20253;-68
2021/04/18 02:54:40;;;;;;;;;;;19.00;93.80;;;;;;5014564;28;20435;-68
2021/04/18 02:57:06;;;;;;;;;;;18.90;94.00;;;;;;5013684;28;19984;-69
2021/04/18 02:59:33;;;;;;;;;;;19.00;94.70;;;;;;5009595;28;19914;-69
2021/04/18 03:02:01;;;;;;;;;;;19.10;93.90;;;;;;5013550;28;19917;-69
2021/04/18 03:04:28;;;;;;;;;;;19.20;94.10;;;;;;5012971;28;19949;-69
2021/04/18 03:06:55;;;;;;;;;;;19.30;93.80;;;;;;5009933;28;19910;-69
2021/04/18 03:09:21;;;;;;;;;;;19.20;93.80;;;;;;5013890;28;19967;-69
2021/04/18 03:11:51;;;;;;;;;;;19.20;93.90;;;;;;5013941;28;20383;-70
2021/04/18 03:14:18;;;;;;;;;;;19.00;93.40;;;;;;5013110;28;19921;-70
2021/04/18 03:16:45;;;;;;;;;;;18.90;94.30;;;;;;5013903;28;20335;-69
2021/04/18 03:19:11;;;;;;;;;;;18.90;94.20;;;;;;5014090;28;19910;-70
2021/04/18 03:21:42;;;;;;;;;;;18.80;94.20;;;;;;5008054;28;20001;-69
2021/04/18 03:24:10;;;;;;;;;;;18.90;94.50;;;;;;5013555;28;19964;-69
2021/04/18 03:26:36;;;;;;;;;;;19.00;94.40;;;;;;5013620;28;19920;-70
2021/04/18 03:29:03;;;;;;;;;;;19.00;94.20;;;;;;5006949;28;19926;-70
2021/04/18 03:31:30;;;;;;;;;;;19.00;95.00;;;;;;4998604;28;20253;-70
2021/04/18 03:33:58;;;;;;;;;;;18.90;95.10;;;;;;5015049;28;19910;-69
2021/04/18 03:36:25;;;;;;;;;;;18.80;95.50;;;;;;5022382;28;20089;-70
2021/04/18 03:38:52;;;;;;;;;;;18.70;95.50;;;;;;5015772;28;19913;-71
2021/04/18 03:41:18;;;;;;;;;;;18.60;96.40;;;;;;5012813;28;19917;-71
2021/04/18 03:43:45;;;;;;;;;;;18.60;97.40;;;;;;5013549;28;19914;-69
2021/04/18 03:46:12;;;;;;;;;;;18.60;97.00;;;;;;5013626;28;19964;-69
2021/04/18 03:48:38;;;;;;;;;;;18.40;96.90;;;;;;5013376;28;19964;-68
2021/04/18 03:51:05;;;;;;;;;;;18.30;96.50;;;;;;5011914;28;20291;-70
2021/04/18 03:53:32;;;;;;;;;;;18.30;97.00;;;;;;5013123;28;19914;-69
2021/04/18 03:55:58;;;;;;;;;;;18.40;97.20;;;;;;5013446;28;19913;-69
2021/04/18 03:58:25;;;;;;;;;;;18.20;97.00;;;;;;5012436;28;19960;-70
2021/04/18 04:00:52;;;;;;;;;;;18.20;97.40;;;;;;4995555;28;19956;-70
2021/04/18 04:03:19;;;;;;;;;;;18.20;97.80;;;;;;5011586;28;19914;-70
2021/04/18 04:05:45;;;;;;;;;;;18.20;98.10;;;;;;5012848;28;19917;-69
2021/04/18 04:08:12;;;;;;;;;;;18.20;97.50;;;;;;5012573;28;19914;-71
2021/04/18 04:10:39;;;;;;;;;;;18.30;97.70;;;;;;5012719;28;19972;-70
2021/04/18 04:13:06;;;;;;;;;;;18.50;97.90;;;;;;4995207;28;20292;-70
2021/04/18 04:15:33;;;;;;;;;;;18.50;98.40;;;;;;5013204;28;20394;-70
2021/04/18 04:18:01;;;;;;;;;;;18.70;97.80;;;;;;5012283;28;19918;-70
2021/04/18 04:20:27;;;;;;;;;;;18.80;97.80;;;;;;5010763;28;19928;-69
2021/04/18 04:22:57;;;;;;;;;;;18.80;98.00;;;;;;5012534;28;19917;-71
2021/04/18 04:25:24;;;;;;;;;;;18.90;97.80;;;;;;5015884;28;19925;-70
2021/04/18 04:27:50;;;;;;;;;;;18.90;97.70;;;;;;5011209;28;19913;-71
2021/04/18 04:30:17;;;;;;;;;;;18.80;97.50;;;;;;5002400;28;19933;-71
2021/04/18 04:32:44;;;;;;;;;;;18.70;98.60;;;;;;5012659;28;19920;-71
2021/04/18 04:35:17;;;;;;;;;;;18.80;99.30;;;;;;5013011;28;19964;-70
2021/04/18 04:37:44;;;;;;;;;;;18.80;99.60;;;;;;4993883;28;20265;-69
2021/04/18 04:40:10;;;;;;;;;;;18.80;99.00;;;;;;5012523;28;19914;-69
2021/04/18 04:42:37;;;;;;;;;;;18.80;98.90;;;;;;4995236;28;19913;-70
2021/04/18 04:45:04;;;;;;;;;;;18.70;99.30;;;;;;5012230;28;19972;-69
2021/04/18 04:47:31;;;;;;;;;;;18.70;99.90;;;;;;5013107;28;20319;-69
2021/04/18 04:49:57;;;;;;;;;;;18.70;99.50;;;;;;5012878;28;19914;-68
2021/04/18 04:52:24;;;;;;;;;;;18.70;99.00;;;;;;5001690;28;19913;-69
2021/04/18 04:54:52;;;;;;;;;;;18.70;99.40;;;;;;5012829;28;19952;-69
2021/04/18 04:57:19;;;;;;;;;;;18.70;99.50;;;;;;5013083;28;20020;-69
2021/04/18 04:59:46;;;;;;;;;;;18.70;99.00;;;;;;5008903;28;20000;-68
2021/04/18 05:02:12;;;;;;;;;;;18.60;99.10;;;;;;5011537;28;19914;-69
2021/04/18 05:04:39;;;;;;;;;;;18.50;99.30;;;;;;5012808;28;19918;-68
2021/04/18 05:07:06;;;;;;;;;;;18.60;99.80;;;;;;5014877;28;19914;-69
2021/04/18 05:09:32;;;;;;;;;;;18.50;99.60;;;;;;5016393;28;19978;-68
2021/04/18 05:12:00;;;;;;;;;;;18.60;99.90;;;;;;5016505;28;19913;-69
2021/04/18 05:14:26;;;;;;;;;;;18.60;99.90;;;;;;5016064;28;20000;-68
2021/04/18 05:16:53;;;;;;;;;;;18.60;99.90;;;;;;5015540;28;19920;-68
2021/04/18 05:19:20;;;;;;;;;;;18.60;99.90;;;;;;5015780;28;19916;-69
2021/04/18 05:21:47;;;;;;;;;;;18.50;99.90;;;;;;5014955;28;19914;-69
2021/04/18 05:24:13;;;;;;;;;;;18.60;99.90;;;;;;5015806;28;19956;-70
2021/04/18 05:26:40;;;;;;;;;;;18.50;99.90;;;;;;5015690;28;19914;-71
2021/04/18 05:29:06;;;;;;;;;;;18.60;99.90;;;;;;5015109;28;20036;-70
2021/04/18 05:31:33;;;;;;;;;;;18.60;99.90;;;;;;5015439;28;20394;-70
2021/04/18 05:34:00;;;;;;;;;;;18.60;99.90;;;;;;5015545;28;19920;-69
2021/04/18 05:36:27;;;;;;;;;;;18.70;99.90;;;;;;5015922;28;20008;-69
2021/04/18 05:38:53;;;;;;;;;;;18.60;99.90;;;;;;5016084;28;19916;-70
2021/04/18 05:41:20;;;;;;;;;;;18.60;99.90;;;;;;5016184;28;20000;-72
2021/04/18 05:43:49;;;;;;;;;;;18.50;99.90;;;;;;5015885;28;19917;-70
2021/04/18 05:46:16;;;;;;;;;;;18.50;99.90;;;;;;5015998;28;19910;-70
2021/04/18 05:48:43;;;;;;;;;;;18.50;99.90;;;;;;5015801;28;20352;-68
2021/04/18 05:51:10;;;;;;;;;;;18.40;99.90;;;;;;5015727;28;20355;-68
2021/04/18 05:53:37;;;;;;;;;;;18.40;99.90;;;;;;5015926;28;20363;-68
2021/04/18 05:56:03;;;;;;;;;;;18.40;99.90;;;;;;5015964;28;19909;-69
2021/04/18 05:58:30;;;;;;;;;;;18.40;99.90;;;;;;5015675;28;19990;-69
2021/04/18 06:00:57;;;;;;;;;;;18.30;99.90;;;;;;5015435;28;19945;-68
2021/04/18 06:03:23;;;;;;;;;;;18.30;99.90;;;;;;5015726;28;19921;-69
2021/04/18 06:05:50;;;;;;;;;;;18.40;99.90;;;;;;5015481;28;19984;-69
2021/04/18 06:08:17;;;;;;;;;;;18.40;99.90;;;;;;5015784;28;19909;-69
2021/04/18 06:10:43;;;;;;;;;;;18.40;99.90;;;;;;5015432;28;19909;-69
2021/04/18 06:13:10;;;;;;;;;;;18.30;99.90;;;;;;5015581;28;19916;-68
2021/04/18 06:15:37;;;;;;;;;;;18.30;99.90;;;;;;5015132;28;19913;-67
2021/04/18 06:18:04;;;;;;;;;;;18.30;99.90;;;;;;5014619;28;19911;-68
2021/04/18 06:20:30;;;;;;;;;;;18.20;99.90;;;;;;5015209;28;19909;-67
2021/04/18 06:22:57;;;;;;;;;;;18.20;99.90;;;;;;5015107;28;20283;-68
2021/04/18 06:25:24;;;;;;;;;;;18.20;99.90;;;;;;5015439;28;19918;-68
2021/04/18 06:27:51;;;;;;;;;;;18.20;99.90;;;;;;5015150;28;20279;-69
2021/04/18 06:30:18;;;;;;;;;;;18.20;99.90;;;;;;5015077;28;19926;-69
2021/04/18 06:32:45;;;;;;;;;;;18.10;99.90;;;;;;4997657;28;19909;-71
2021/04/18 06:35:12;;;;;;;;;;;18.10;99.90;;;;;;5014958;28;19956;-71
2021/04/18 06:37:38;;;;;;;;;;;18.00;99.90;;;;;;5014933;28;20371;-71
2021/04/18 06:40:06;;;;;;;;;;;18.00;99.90;;;;;;5016044;28;19909;-69
2021/04/18 06:42:36;;;;;;;;;;;18.00;99.90;;;;;;5014869;28;20011;-70
2021/04/18 06:45:04;;;;;;;;;;;17.80;99.90;;;;;;5014675;28;20318;-70
2021/04/18 06:47:31;;;;;;;;;;;17.80;99.90;;;;;;4997377;28;19921;-69
2021/04/18 06:49:59;;;;;;;;;;;17.80;99.90;;;;;;5014906;28;19949;-70
2021/04/18 06:52:26;;;;;;;;;;;17.80;99.90;;;;;;5014585;28;19917;-69
2021/04/18 06:54:53;;;;;;;;;;;17.80;99.90;;;;;;5014491;28;19909;-70
2021/04/18 06:57:19;;;;;;;;;;;17.70;99.90;;;;;;5014619;28;19979;-70
2021/04/18 06:59:46;;;;;;;;;;;17.70;99.90;;;;;;5014721;28;19909;-70
2021/04/18 07:02:32;;;;;;;;;;;17.70;99.90;;;;;;5014280;28;19909;-68
2021/04/18 07:05:01;;;;;;;;;;;17.70;99.90;;;;;;5013919;28;19928;-69
2021/04/18 07:07:29;;;;;;;;;;;17.80;99.90;;;;;;4995267;28;19914;-70
2021/04/18 07:09:56;;;;;;;;;;;17.70;99.90;;;;;;4992792;28;19945;-69
2021/04/18 07:12:27;;;;;;;;;;;17.70;99.90;;;;;;4992806;28;19913;-70
2021/04/18 07:14:53;;;;;;;;;;;17.60;99.90;;;;;;4991782;28;19914;-71
2021/04/18 07:17:20;;;;;;;;;;;17.70;99.90;;;;;;4992721;28;20352;-70
2021/04/18 07:19:49;;;;;;;;;;;17.60;99.90;;;;;;4992063;28;20427;-71
2021/04/18 07:22:20;;;;;;;;;;;17.50;99.90;;;;;;4992344;28;19910;-71
2021/04/18 07:24:51;;;;;;;;;;;17.50;99.90;;;;;;4992541;28;20324;-72
2021/04/18 07:27:18;;;;;;;;;;;17.40;99.90;;;;;;4992312;28;19918;-70
2021/04/18 07:29:52;;;;;;;;;;;17.40;99.90;;;;;;4992300;28;20004;-71
2021/04/18 07:32:19;;;;;;;;;;;17.40;99.90;;;;;;4991983;28;19952;-71
2021/04/18 07:34:46;;;;;;;;;;;17.30;99.90;;;;;;4991901;28;19914;-71
2021/04/18 07:37:17;;;;;;;;;;;17.30;99.90;;;;;;4992243;28;19920;-69
2021/04/18 07:39:54;;;;;;;;;;;17.30;99.90;;;;;;4992477;28;19945;-69
2021/04/18 07:42:35;;;;;;;;;;;17.20;99.90;;;;;;4992559;28;20033;-70
2021/04/18 07:45:05;;;;;;;;;;;17.20;99.90;;;;;;4991932;28;19922;-70
2021/04/18 07:47:33;;;;;;;;;;;17.10;99.90;;;;;;4992124;28;19916;-69
2021/04/18 07:50:00;;;;;;;;;;;17.20;99.90;;;;;;4992321;28;19916;-71
2021/04/18 07:52:29;;;;;;;;;;;17.20;99.90;;;;;;4992181;28;20080;-73
2021/04/18 07:54:55;;;;;;;;;;;17.20;99.90;;;;;;4991821;28;19910;-70
2021/04/18 07:57:22;;;;;;;;;;;17.10;99.90;;;;;;4991998;28;20337;-71
2021/04/18 07:59:49;;;;;;;;;;;17.10;99.90;;;;;;4991712;28;19914;-73
2021/04/18 08:02:20;;;;;;;;;;;17.00;99.90;;;;;;4991923;28;19968;-72
2021/04/18 08:04:50;;;;;;;;;;;17.00;99.90;;;;;;4991749;28;19945;-72
2021/04/18 08:07:17;;;;;;;;;;;17.00;99.90;;;;;;4993221;28;20008;-76
2021/04/18 08:09:43;;;;;;;;;;;17.00;99.90;;;;;;4992430;28;19914;-73
2021/04/18 08:12:18;;;;;;;;;;;16.90;99.90;;;;;;4991669;28;19914;-73
2021/04/18 08:14:44;;;;;;;;;;;16.90;99.90;;;;;;4991932;28;19953;-71
2021/04/18 08:17:12;;;;;;;;;;;16.90;99.90;;;;;;4991550;28;19909;-73
2021/04/18 08:19:53;;;;;;;;;;;16.90;99.90;;;;;;4991714;28;19917;-72
2021/04/18 08:22:20;;;;;;;;;;;16.90;99.90;;;;;;4991677;28;20003;-72
2021/04/18 08:24:47;;;;;;;;;;;16.90;99.90;;;;;;4991101;28;19918;-71
2021/04/18 08:27:16;;;;;;;;;;;16.90;99.90;;;;;;4991640;28;19956;-74
2021/04/18 08:30:01;;;;;;;;;;;16.80;99.90;;;;;;4991030;28;19976;-73
2021/04/18 08:32:48;;;;;;;;;;;16.80;99.90;;;;;;4991545;28;19918;-73
2021/04/18 08:35:15;;;;;;;;;;;16.90;99.90;;;;;;4991128;28;19964;-72
2021/04/18 08:37:41;;;;;;;;;;;16.90;99.90;;;;;;4991212;28;19910;-72
2021/04/18 08:40:08;;;;;;;;;;;17.00;99.90;;;;;;4993460;28;19913;-73
2021/04/18 08:42:36;;;;;;;;;;;16.90;99.90;;;;;;4995799;28;19942;-73
2021/04/18 08:45:04;;;;;;;;;;;16.90;99.90;;;;;;4995514;28;19917;-74
2021/04/18 08:47:31;;;;;;;;;;;16.80;99.90;;;;;;4995568;28;19909;-72
2021/04/18 08:50:06;;;;;;;;;;;16.80;99.90;;;;;;4995412;28;19918;-71
2021/04/18 08:52:34;;;;;;;;;;;16.80;99.90;;;;;;4995003;28;19925;-73
2021/04/18 08:55:18;;;;;;;;;;;16.80;99.90;;;;;;4995321;28;19956;-70
2021/04/18 08:57:45;;;;;;;;;;;16.80;99.90;;;;;;4995535;28;19910;-71
2021/04/18 09:00:13;;;;;;;;;;;16.80;99.90;;;;;;4995235;28;19909;-72
2021/04/18 09:02:40;;;;;;;;;;;16.80;99.90;;;;;;4995021;28;19910;-72
2021/04/18 09:05:13;;;;;;;;;;;16.80;99.90;;;;;;4994447;28;19922;-73
2021/04/18 09:07:44;;;;;;;;;;;16.90;99.90;;;;;;4995218;28;19964;-72
2021/04/18 09:10:12;;;;;;;;;;;16.80;99.90;;;;;;4993663;28;19971;-72
2021/04/18 09:12:38;;;;;;;;;;;16.90;99.90;;;;;;4994945;28;19968;-72
2021/04/18 09:15:06;;;;;;;;;;;16.80;99.90;;;;;;4994800;28;19913;-72
2021/04/18 09:17:33;;;;;;;;;;;16.80;99.90;;;;;;4994407;28;20089;-72
2021/04/18 09:20:05;;;;;;;;;;;16.80;99.90;;;;;;4994734;28;19914;-71
2021/04/18 09:22:35;;;;;;;;;;;16.90;99.90;;;;;;4994697;28;19917;-72
2021/04/18 09:25:15;;;;;;;;;;;16.80;99.90;;;;;;4994307;28;20003;-71
2021/04/18 09:27:42;;;;;;;;;;;16.80;99.90;;;;;;4994902;28;19918;-72
2021/04/18 09:30:12;;;;;;;;;;;16.80;99.90;;;;;;5001170;28;19929;-68
2021/04/18 09:32:49;;;;;;;;;;;16.80;99.90;;;;;;5012482;28;19921;-72
2021/04/18 09:35:17;;;;;;;;;;;16.70;99.90;;;;;;5012112;28;20422;-70
2021/04/18 09:37:49;;;;;;;;;;;16.70;99.90;;;;;;5012198;28;20410;-71
2021/04/18 09:40:17;;;;;;;;;;;16.60;99.90;;;;;;5013409;28;20477;-71
2021/04/18 09:42:49;;;;;;;;;;;16.60;99.90;;;;;;5013255;28;19933;-70
2021/04/18 09:45:17;;;;;;;;;;;16.60;99.90;;;;;;5012354;28;19945;-70
2021/04/18 09:47:48;;;;;;;;;;;16.60;99.90;;;;;;5013581;28;19909;-71
2021/04/18 09:50:24;;;;;;;;;;;16.60;99.90;;;;;;5012430;28;19925;-70
2021/04/18 09:52:51;;;;;;;;;;;16.60;99.90;;;;;;5013646;28;19913;-69
2021/04/18 09:55:26;;;;;;;;;;;16.60;99.90;;;;;;5013645;28;20292;-71
2021/04/18 09:57:59;;;;;;;;;;;16.60;99.90;;;;;;4995078;28;19910;-68
2021/04/18 10:00:35;;;;;;;;;;;16.60;99.90;;;;;;5015738;28;20356;-70
2021/04/18 10:03:02;;;;;;;;;;;16.60;99.90;;;;;;5014766;28;19910;-71
2021/04/18 10:05:29;;;;;;;;;;;16.60;99.90;;;;;;5015587;28;19921;-70
2021/04/18 10:08:14;;;;;;;;;;;16.60;99.90;;;;;;5017047;28;20284;-70
2021/04/18 10:10:41;;;;;;;;;;;16.60;99.90;;;;;;4997348;28;19913;-70
2021/04/18 10:13:08;;;;;;;;;;;16.60;99.90;;;;;;5014722;28;20376;-71
2021/04/18 10:15:49;;;;;;;;;;;16.50;99.90;;;;;;5017247;28;19995;-69
2021/04/18 10:18:18;;;;;;;;;;;16.50;99.90;;;;;;5015007;28;20268;-71
2021/04/18 10:20:44;;;;;;;;;;;16.50;99.90;;;;;;5015735;28;20299;-69
2021/04/18 10:23:11;;;;;;;;;;;16.50;99.90;;;;;;5014813;28;19910;-70
2021/04/18 10:25:39;;;;;;;;;;;16.50;99.90;;;;;;5014938;28;19984;-71
2021/04/18 10:28:06;;;;;;;;;;;16.50;99.90;;;;;;5015415;28;20000;-71
2021/04/18 10:30:33;;;;;;;;;;;16.50;99.90;;;;;;5012269;28;19921;-70
2021/04/18 10:33:00;;;;;;;;;;;16.40;99.90;;;;;;4993730;28;20356;-69
2021/04/18 10:35:26;;;;;;;;;;;16.40;99.90;;;;;;5000794;28;20015;-71
2021/04/18 10:37:53;;;;;;;;;;;16.40;99.90;;;;;;5012650;28;19960;-70
2021/04/18 10:40:22;;;;;;;;;;;16.40;99.90;;;;;;5012241;28;19983;-71
2021/04/18 10:42:49;;;;;;;;;;;16.40;99.90;;;;;;5012196;28;19917;-69
2021/04/18 10:45:16;;;;;;;;;;;16.40;99.90;;;;;;5011568;28;20024;-70
2021/04/18 10:47:43;;;;;;;;;;;16.40;99.90;;;;;;5012750;28;19960;-70
2021/04/18 10:50:12;;;;;;;;;;;16.50;99.90;;;;;;5012362;28;19913;-72
2021/04/18 10:52:39;;;;;;;;;;;16.50;99.90;;;;;;5012902;28;19964;-69
2021/04/18 10:55:06;;;;;;;;;;;16.50;99.90;;;;;;5012838;28;19913;-71
2021/04/18 10:57:33;;;;;;;;;;;16.50;99.90;;;;;;5004020;28;20360;-70
2021/04/18 11:00:04;;;;;;;;;;;16.40;99.90;;;;;;4992466;28;19940;-70
2021/04/18 11:02:34;;;;;;;;;;;16.40;99.90;;;;;;5010296;28;19972;-71
2021/04/18 11:05:00;;;;;;;;;;;16.40;99.90;;;;;;5011943;28;19921;-68
2021/04/18 11:07:31;;;;;;;;;;;16.40;99.90;;;;;;5012496;28;20344;-71
2021/04/18 11:10:00;;;;;;;;;;;16.40;99.90;;;;;;5011665;28;19920;-71
2021/04/18 11:12:27;;;;;;;;;;;16.40;99.90;;;;;;5012137;28;20366;-69
2021/04/18 11:14:54;;;;;;;;;;;16.40;99.90;;;;;;5011421;28;19921;-70
2021/04/18 11:17:20;;;;;;;;;;;16.30;99.90;;;;;;4992631;28;20383;-71
2021/04/18 11:19:47;;;;;;;;;;;16.30;99.90;;;;;;5011122;28;19913;-71
2021/04/18 11:22:14;;;;;;;;;;;16.30;99.90;;;;;;5002656;28;19972;-70
2021/04/18 11:24:40;;;;;;;;;;;16.20;99.90;;;;;;5011762;28;19921;-72
2021/04/18 11:27:07;;;;;;;;;;;16.20;99.90;;;;;;5011650;28;19917;-71
2021/04/18 11:29:34;;;;;;;;;;;16.20;99.90;;;;;;5011625;28;19918;-71
2021/04/18 11:32:00;;;;;;;;;;;16.20;99.90;;;;;;5011293;28;19914;-71
2021/04/18 11:34:27;;;;;;;;;;;16.20;99.90;;;;;;5011770;28;19914;-72
2021/04/18 11:36:54;;;;;;;;;;;16.20;99.90;;;;;;5010758;28;19944;-71
2021/04/18 11:39:20;;;;;;;;;;;16.20;99.90;;;;;;5012060;28;19909;-69
2021/04/18 11:41:47;;;;;;;;;;;16.10;99.90;;;;;;5011361;28;20013;-70
2021/04/18 11:44:14;;;;;;;;;;;16.10;99.90;;;;;;5011672;28;19921;-72
2021/04/18 11:46:42;;;;;;;;;;;16.10;99.90;;;;;;5012082;28;19914;-71
2021/04/18 11:49:09;;;;;;;;;;;16.10;99.90;;;;;;5011675;28;19913;-73
2021/04/18 11:51:37;;;;;;;;;;;16.10;99.90;;;;;;5011679;28;19909;-70
2021/04/18 11:54:06;;;;;;;;;;;16.10;99.90;;;;;;5011306;28;19914;-70
2021/04/18 11:56:33;;;;;;;;;;;16.20;99.90;;;;;;5012132;28;20375;-71
2021/04/18 11:59:01;;;;;;;;;;;16.20;99.90;;;;;;5011747;28;19909;-70
2021/04/18 12:01:27;;;;;;;;;;;16.20;99.90;;;;;;5010885;28;19917;-71
2021/04/18 12:03:54;;;;;;;;;;;16.20;99.90;;;;;;5010871;28;19917;-70
2021/04/18 12:06:21;;;;;;;;;;;16.10;99.90;;;;;;5010538;28;20004;-70
2021/04/18 12:08:48;;;;;;;;;;;16.10;99.90;;;;;;5010470;28;20328;-72
2021/04/18 12:11:15;;;;;;;;;;;16.10;99.90;;;;;;5011263;28;19956;-71
2021/04/18 12:13:41;;;;;;;;;;;16.10;99.90;;;;;;5010644;28;19961;-69
2021/04/18 12:16:09;;;;;;;;;;;16.10;99.90;;;;;;5010879;28;19917;-70
2021/04/18 12:18:36;;;;;;;;;;;16.10;99.90;;;;;;5010945;28;19914;-73
2021/04/18 12:21:03;;;;;;;;;;;16.10;99.90;;;;;;4990409;28;20012;-72
2021/04/18 12:23:29;;;;;;;;;;;16.10;99.90;;;;;;4993536;28;19917;-73
2021/04/18 12:25:56;;;;;;;;;;;16.00;99.90;;;;;;4993815;28;19991;-72
2021/04/18 12:28:24;;;;;;;;;;;16.00;99.90;;;;;;5010482;28;19949;-71
2021/04/18 12:30:51;;;;;;;;;;;16.00;99.90;;;;;;5010549;28;19926;-69
2021/04/18 12:33:18;;;;;;;;;;;15.90;99.90;;;;;;5010514;28;19971;-69
2021/04/18 12:35:45;;;;;;;;;;;16.00;99.90;;;;;;5010778;28;19963;-71
2021/04/18 12:38:11;;;;;;;;;;;15.80;99.90;;;;;;5029195;28;20060;-71
2021/04/18 12:40:39;;;;;;;;;;;15.60;99.90;;;;;;5030875;28;19979;-72
2021/04/18 12:43:06;;;;;;;;;;;15.50;99.90;;;;;;5012777;28;19968;-72
2021/04/18 12:45:33;;;;;;;;;;;15.40;99.90;;;;;;5030780;28;19921;-71
2021/04/18 12:47:59;;;;;;;;;;;15.30;99.90;;;;;;5029881;28;19913;-71
2021/04/18 12:50:26;;;;;;;;;;;15.40;99.90;;;;;;4997156;28;19914;-71
2021/04/18 12:52:53;;;;;;;;;;;15.40;99.90;;;;;;5010726;28;19916;-71
2021/04/18 12:55:20;;;;;;;;;;;15.40;99.90;;;;;;5009363;28;19920;-71
2021/04/18 12:57:46;;;;;;;;;;;15.50;99.90;;;;;;5004806;28;20297;-72
2021/04/18 13:00:15;;;;;;;;;;;15.50;99.90;;;;;;5018134;28;19913;-72
2021/04/18 13:02:42;;;;;;;;;;;15.50;99.90;;;;;;4997307;28;19918;-72
2021/04/18 13:05:08;;;;;;;;;;;15.60;99.90;;;;;;4990672;28;19944;-72
2021/04/18 13:07:36;;;;;;;;;;;15.60;99.90;;;;;;5002577;28;19968;-71
2021/04/18 13:10:05;;;;;;;;;;;15.60;99.90;;;;;;4992797;28;19929;-69
2021/04/18 13:12:32;;;;;;;;;;;15.60;99.90;;;;;;5010163;28;19910;-72
2021/04/18 13:14:59;;;;;;;;;;;15.60;99.90;;;;;;5010405;28;19919;-71
2021/04/18 13:17:26;;;;;;;;;;;15.60;99.90;;;;;;4992607;28;20331;-72
2021/04/18 13:19:53;;;;;;;;;;;15.60;99.90;;;;;;5009866;28;20000;-71
2021/04/18 13:22:20;;;;;;;;;;;15.60;99.90;;;;;;5010545;28;19985;-71
2021/04/18 13:24:47;;;;;;;;;;;15.60;99.90;;;;;;5009467;28;19929;-71
2021/04/18 13:27:15;;;;;;;;;;;15.60;99.90;;;;;;5012619;28;19940;-71
2021/04/18 13:29:42;;;;;;;;;;;15.60;99.90;;;;;;5014643;28;19925;-71
2021/04/18 13:32:09;;;;;;;;;;;15.60;99.90;;;;;;5014229;28;19909;-71
2021/04/18 13:34:36;;;;;;;;;;;15.50;99.90;;;;;;5014167;28;19913;-70
2021/04/18 13:37:03;;;;;;;;;;;15.50;99.90;;;;;;5013968;28;19914;-71
2021/04/18 13:39:29;;;;;;;;;;;15.50;99.90;;;;;;5014488;28;20323;-72
2021/04/18 13:41:56;;;;;;;;;;;15.50;99.90;;;;;;5014373;28;19909;-71
2021/04/18 13:44:23;;;;;;;;;;;15.50;99.90;;;;;;5014087;28;19956;-71
2021/04/18 13:46:50;;;;;;;;;;;15.50;99.90;;;;;;5014215;28;19910;-73
2021/04/18 13:49:17;;;;;;;;;;;15.40;99.90;;;;;;5014154;28;20364;-70
2021/04/18 13:51:43;;;;;;;;;;;15.40;99.90;;;;;;5013565;28;19960;-70
2021/04/18 13:54:10;;;;;;;;;;;15.40;99.90;;;;;;5014729;28;19925;-71
2021/04/18 13:56:37;;;;;;;;;;;15.40;99.90;;;;;;5014601;28;19913;-72
2021/04/18 13:59:04;;;;;;;;;;;15.40;99.90;;;;;;5017590;28;19914;-73
2021/04/18 14:01:31;;;;;;;;;;;15.40;99.90;;;;;;5024364;28;20371;-71
2021/04/18 14:03:58;;;;;;;;;;;15.40;99.90;;;;;;5021824;28;19925;-73
2021/04/18 14:06:25;;;;;;;;;;;15.40;99.90;;;;;;5023886;28;19920;-72
2021/04/18 14:08:52;;;;;;;;;;;15.40;99.90;;;;;;5024729;28;19928;-72
2021/04/18 14:11:18;;;;;;;;;;;15.40;99.90;;;;;;5024491;28;19928;-72
2021/04/18 14:13:45;;;;;;;;;;;15.30;99.90;;;;;;5024286;28;19921;-72
2021/04/18 14:16:12;;;;;;;;;;;15.30;99.90;;;;;;5025161;28;19999;-71
2021/04/18 14:18:39;;;;;;;;;;;15.30;99.90;;;;;;5022894;28;19913;-72